ICE34R BIKF-BIAR
Flight info
| Callsign | ICE34R |
|---|---|
| Flight time | N/A |
| Altitude | 23000 |
| Route | LUTER2A LUTER DCT ASKUR |
| Aircraft | B38M/M-SDE1FGHILORVWXY/HB1 |
Departure
| Time | 2026-05-05 16:15 |
|---|---|
| Airport | Keflavik International Airport (BIKF) |
Arrival
| Time | N/A |
|---|---|
| Airport | Akureyri International Airport (BIAR) |
| Time | Latitude | Longitude | Altitude | Speed | Heading |
|---|---|---|---|---|---|
| 2026-05-05 15:26 | 63.99406 | -22.61829 | 150 ft | 0 kts | 180° |
| 2026-05-05 15:35 | 63.99421 | -22.61829 | 149 ft | 4 kts | 178° |
| 2026-05-05 15:36 | 63.99447 | -22.61835 | 159 ft | 4 kts | 164° |
| 2026-05-05 15:36 | 63.99468 | -22.61859 | 136 ft | 4 kts | 111° |
| 2026-05-05 15:36 | 63.99470 | -22.61876 | 140 ft | 1 kts | 90° |
| 2026-05-05 15:54 | 63.99406 | -22.61829 | 143 ft | 0 kts | 180° |
| 2026-05-05 15:58 | 63.99425 | -22.61829 | 143 ft | 4 kts | 176° |
| 2026-05-05 15:58 | 63.99452 | -22.61838 | 143 ft | 4 kts | 159° |
| 2026-05-05 15:58 | 63.99469 | -22.61867 | 143 ft | 4 kts | 97° |
| 2026-05-05 15:59 | 63.99470 | -22.61877 | 143 ft | 0 kts | 90° |
| 2026-05-05 16:00 | 63.99470 | -22.61876 | 143 ft | 0 kts | 90° |
| 2026-05-05 16:01 | 63.99470 | -22.61862 | 143 ft | 2 kts | 90° |
| 2026-05-05 16:01 | 63.99470 | -22.61806 | 142 ft | 5 kts | 89° |
| 2026-05-05 16:01 | 63.99471 | -22.61731 | 143 ft | 4 kts | 87° |
| 2026-05-05 16:02 | 63.99471 | -22.61721 | 143 ft | 4 kts | 86° |
| 2026-05-05 16:02 | 63.99471 | -22.61667 | 143 ft | 5 kts | 90° |
| 2026-05-05 16:02 | 63.99471 | -22.61570 | 143 ft | 7 kts | 91° |
| 2026-05-05 16:03 | 63.99471 | -22.61537 | 143 ft | 1 kts | 91° |
| 2026-05-05 16:03 | 63.99468 | -22.61504 | 143 ft | 3 kts | 105° |
| 2026-05-05 16:03 | 63.99451 | -22.61454 | 143 ft | 5 kts | 142° |
| 2026-05-05 16:03 | 63.99410 | -22.61429 | 144 ft | 6 kts | 175° |
| 2026-05-05 16:04 | 63.99370 | -22.61429 | 146 ft | 5 kts | 180° |
| 2026-05-05 16:04 | 63.99335 | -22.61429 | 147 ft | 5 kts | 181° |
| 2026-05-05 16:04 | 63.99304 | -22.61430 | 149 ft | 4 kts | 180° |
| 2026-05-05 16:04 | 63.99279 | -22.61429 | 150 ft | 3 kts | 179° |
| 2026-05-05 16:05 | 63.99256 | -22.61428 | 151 ft | 4 kts | 179° |
| 2026-05-05 16:05 | 63.99229 | -22.61428 | 152 ft | 4 kts | 178° |
| 2026-05-05 16:05 | 63.99196 | -22.61415 | 154 ft | 4 kts | 154° |
| 2026-05-05 16:05 | 63.99178 | -22.61355 | 156 ft | 5 kts | 105° |
| 2026-05-05 16:06 | 63.99174 | -22.61250 | 158 ft | 8 kts | 91° |
| 2026-05-05 16:06 | 63.99157 | -22.61144 | 161 ft | 6 kts | 134° |
| 2026-05-05 16:06 | 63.99111 | -22.61124 | 162 ft | 9 kts | 179° |
| 2026-05-05 16:06 | 63.99031 | -22.61123 | 165 ft | 14 kts | 180° |
| 2026-05-05 16:07 | 63.98906 | -22.61124 | 164 ft | 22 kts | 180° |
| 2026-05-05 16:07 | 63.98730 | -22.61124 | 164 ft | 29 kts | 181° |
| 2026-05-05 16:07 | 63.98561 | -22.61125 | 166 ft | 20 kts | 180° |
| 2026-05-05 16:07 | 63.98400 | -22.61124 | 160 ft | 28 kts | 180° |
| 2026-05-05 16:08 | 63.98225 | -22.61121 | 162 ft | 16 kts | 178° |
| 2026-05-05 16:08 | 63.98149 | -22.61058 | 163 ft | 5 kts | 120° |
| 2026-05-05 16:08 | 63.98145 | -22.61034 | 164 ft | 0 kts | 113° |
| 2026-05-05 16:08 | 63.98141 | -22.61014 | 165 ft | 3 kts | 113° |
| 2026-05-05 16:09 | 63.98121 | -22.60957 | 168 ft | 7 kts | 145° |
| 2026-05-05 16:09 | 63.98048 | -22.60941 | 169 ft | 15 kts | 182° |
| 2026-05-05 16:09 | 63.97920 | -22.60941 | 170 ft | 23 kts | 180° |
| 2026-05-05 16:09 | 63.97737 | -22.60939 | 170 ft | 24 kts | 180° |
| 2026-05-05 16:10 | 63.97561 | -22.60941 | 168 ft | 27 kts | 180° |
| 2026-05-05 16:10 | 63.97429 | -22.60941 | 166 ft | 29 kts | 180° |
| 2026-05-05 16:10 | 63.97215 | -22.60941 | 159 ft | 33 kts | 180° |
| 2026-05-05 16:10 | 63.97008 | -22.60940 | 152 ft | 30 kts | 181° |
| 2026-05-05 16:11 | 63.96820 | -22.60940 | 145 ft | 26 kts | 179° |
| 2026-05-05 16:11 | 63.96527 | -22.60941 | 136 ft | 1 kts | 180° |
| 2026-05-05 16:12 | 63.96506 | -22.60940 | 136 ft | 5 kts | 178° |
| 2026-05-05 16:12 | 63.96461 | -22.60808 | 139 ft | 6 kts | 90° |
| 2026-05-05 16:13 | 63.96462 | -22.60619 | 144 ft | 4 kts | 83° |
| 2026-05-05 16:13 | 63.96475 | -22.60566 | 145 ft | 3 kts | 44° |
| 2026-05-05 16:13 | 63.96491 | -22.60551 | 146 ft | 2 kts | 18° |
| 2026-05-05 16:14 | 63.96533 | -22.60544 | 148 ft | 12 kts | 359° |
| 2026-05-05 16:14 | 63.97697 | -22.60542 | 174 ft | 146 kts | 359° |
| 2026-05-05 16:15 | 64.00153 | -22.60483 | 707 ft | 197 kts | 5° |
| 2026-05-05 16:15 | 64.02948 | -22.60176 | 1158 ft | 201 kts | 9° |